createdAt,value
2022-08-05T00:01:28.550Z,29.95
2022-08-05T00:03:57.078Z,29.95
2022-08-05T00:06:28.974Z,29.92
2022-08-05T00:08:59.056Z,29.89
2022-08-05T00:11:34.571Z,29.92
2022-08-05T00:14:02.214Z,29.98
2022-08-05T00:16:36.466Z,30.43
2022-08-05T00:19:15.118Z,29.95
2022-08-05T00:21:42.583Z,29.88
2022-08-05T00:24:10.741Z,29.82
2022-08-05T00:26:37.747Z,29.77
2022-08-05T00:29:04.126Z,29.75
2022-08-05T00:31:53.934Z,29.75
2022-08-05T00:34:54.966Z,29.73
2022-08-05T00:37:09.673Z,29.68
2022-08-05T00:39:41.515Z,29.70
2022-08-05T00:42:32.041Z,29.68
2022-08-05T00:44:58.898Z,29.96
2022-08-05T00:47:25.824Z,30.01
2022-08-05T00:49:52.203Z,29.67
2022-08-05T00:52:18.670Z,29.61
2022-08-05T00:54:55.261Z,29.60
2022-08-05T00:57:23.028Z,29.55
2022-08-05T00:59:51.950Z,29.52
2022-08-05T01:02:18.315Z,29.54
2022-08-05T01:04:44.738Z,29.57
2022-08-05T01:07:17.964Z,29.55
2022-08-05T01:09:44.637Z,29.49
2022-08-05T01:12:18.503Z,29.44
2022-08-05T01:14:45.356Z,29.77
2022-08-05T01:17:11.745Z,29.92
2022-08-05T01:20:01.292Z,29.55
2022-08-05T01:22:28.160Z,29.44
2022-08-05T01:24:54.682Z,29.41
2022-08-05T01:27:22.251Z,29.37
2022-08-05T01:29:48.772Z,29.35
2022-08-05T01:32:18.550Z,29.36
2022-08-05T01:34:45.175Z,29.35
2022-08-05T01:37:17.998Z,29.27
2022-08-05T01:39:51.316Z,29.27
2022-08-05T01:42:17.823Z,29.28
2022-08-05T01:44:44.203Z,29.69
2022-08-05T01:47:19.172Z,29.50
2022-08-05T01:50:01.599Z,29.36
2022-08-05T01:52:28.943Z,29.29
2022-08-05T01:54:56.743Z,29.26
2022-08-05T01:58:12.772Z,29.27
2022-08-05T02:00:11.739Z,29.24
2022-08-05T02:02:38.647Z,29.22
2022-08-05T02:05:13.095Z,29.24
2022-08-05T02:07:41.912Z,29.27
2022-08-05T02:10:28.451Z,29.26
2022-08-05T02:12:55.108Z,29.50
2022-08-05T02:15:21.485Z,29.81
2022-08-05T02:18:31.449Z,29.29
2022-08-05T02:20:38.911Z,29.21
2022-08-05T02:23:05.688Z,29.14
2022-08-05T02:25:49.385Z,29.13
2022-08-05T02:28:16.867Z,29.12
2022-08-05T02:30:56.712Z,29.13
2022-08-05T02:33:24.523Z,29.12
2022-08-05T02:36:02.718Z,29.11
2022-08-05T02:38:35.276Z,29.11
2022-08-05T02:41:06.455Z,29.18
2022-08-05T02:44:02.587Z,29.73
2022-08-05T02:46:30.227Z,29.25
2022-08-05T02:48:56.887Z,29.12
2022-08-05T02:51:28.395Z,29.10
2022-08-05T02:54:09.709Z,29.06
2022-08-05T02:56:56.097Z,29.05
2022-08-05T02:59:27.031Z,29.05
2022-08-05T03:01:54.247Z,29.06
2022-08-05T03:04:20.654Z,29.05
2022-08-05T03:06:54.484Z,29.04
2022-08-05T03:09:36.453Z,29.23
2022-08-05T03:12:04.792Z,29.69
2022-08-05T03:14:31.203Z,29.11
2022-08-05T03:16:57.622Z,29.06
2022-08-05T03:19:33.902Z,28.99
2022-08-05T03:22:01.119Z,28.96
2022-08-05T03:24:29.920Z,29.03
2022-08-05T03:26:56.975Z,29.09
2022-08-05T03:29:23.717Z,29.06
2022-08-05T03:31:57.058Z,29.05
2022-08-05T03:34:26.722Z,28.99
2022-08-05T03:36:53.465Z,28.97
2022-08-05T03:39:26.987Z,29.51
2022-08-05T03:41:56.279Z,29.21
2022-08-05T03:44:22.935Z,29.03
2022-08-05T03:46:49.315Z,29.02
2022-08-05T03:49:15.736Z,29.00
2022-08-05T03:52:48.402Z,28.98
2022-08-05T03:55:50.064Z,28.95
2022-08-05T03:57:16.796Z,28.99
2022-08-05T03:59:47.584Z,28.99
2022-08-05T04:02:38.843Z,29.04
2022-08-05T04:05:09.546Z,29.05
2022-08-05T04:07:46.741Z,29.45
2022-08-05T04:10:22.865Z,29.07
2022-08-05T04:12:49.254Z,28.92
2022-08-05T04:15:15.770Z,28.90
2022-08-05T04:17:56.132Z,28.93
2022-08-05T04:20:23.394Z,28.94
2022-08-05T04:22:49.884Z,28.94
2022-08-05T04:25:16.948Z,28.91
2022-08-05T04:27:56.652Z,28.94
2022-08-05T04:30:24.695Z,28.94
2022-08-05T04:32:52.971Z,28.90
2022-08-05T04:35:19.790Z,29.32
2022-08-05T04:38:02.830Z,29.08
2022-08-05T04:40:32.862Z,28.90
2022-08-05T04:42:59.311Z,28.92
2022-08-05T04:45:48.351Z,28.86
2022-08-05T04:48:18.534Z,28.81
2022-08-05T04:51:02.949Z,28.85
2022-08-05T04:53:33.482Z,28.85
2022-08-05T04:56:33.934Z,28.81
2022-08-05T04:58:48.497Z,28.80
2022-08-05T05:01:14.930Z,28.89
2022-08-05T05:04:00.684Z,29.37
2022-08-05T05:06:39.273Z,28.99
2022-08-05T05:09:13.299Z,28.91
2022-08-05T05:11:53.912Z,28.87
2022-08-05T05:14:27.720Z,28.87
2022-08-05T05:16:58.510Z,28.87
2022-08-05T05:19:26.634Z,28.82
2022-08-05T05:22:06.245Z,28.72
2022-08-05T05:24:57.391Z,28.71
2022-08-05T05:27:41.253Z,28.73
2022-08-05T05:30:08.429Z,29.05
2022-08-05T05:32:54.835Z,28.84
2022-08-05T05:35:21.247Z,28.71
2022-08-05T05:37:59.511Z,28.75
2022-08-05T05:40:28.119Z,28.75
2022-08-05T05:42:55.056Z,28.64
2022-08-05T05:45:22.743Z,28.72
2022-08-05T05:48:06.035Z,28.73
2022-08-05T05:50:34.649Z,28.71
2022-08-05T05:53:21.362Z,28.65
2022-08-05T05:55:52.345Z,28.75
2022-08-05T05:58:31.413Z,29.25
2022-08-05T06:01:02.062Z,29.05
2022-08-05T06:03:53.955Z,28.89
2022-08-05T06:06:24.810Z,28.87
2022-08-05T06:08:54.624Z,28.91
2022-08-05T06:11:21.063Z,28.87
2022-08-05T06:13:53.691Z,28.88
2022-08-05T06:16:30.494Z,28.93
2022-08-05T06:19:00.195Z,29.01
2022-08-05T06:21:37.183Z,28.95
2022-08-05T06:24:04.394Z,28.97
2022-08-05T06:26:33.758Z,29.24
2022-08-05T06:29:03.722Z,29.28
2022-08-05T06:31:46.929Z,29.63
2022-08-05T06:34:13.621Z,29.81
2022-08-05T06:36:57.657Z,29.95
2022-08-05T06:39:27.110Z,30.08
2022-08-05T06:41:54.337Z,30.17
2022-08-05T06:44:22.167Z,30.24
2022-08-05T06:46:50.740Z,30.29
2022-08-05T06:49:17.623Z,30.36
2022-08-05T06:51:45.543Z,30.41
2022-08-05T06:54:12.090Z,30.48
2022-08-05T06:56:54.849Z,30.79
2022-08-05T06:59:38.921Z,30.59
2022-08-05T07:02:08.825Z,30.56
2022-08-05T07:04:35.377Z,30.59
2022-08-05T07:07:02.824Z,30.65
2022-08-05T07:09:40.491Z,30.70
2022-08-05T07:12:07.106Z,30.73
2022-08-05T07:14:34.623Z,30.78
2022-08-05T07:17:58.777Z,30.80
2022-08-05T07:22:33.791Z,30.88
2022-08-05T07:25:22.869Z,30.90
2022-08-05T07:28:01.405Z,31.25
2022-08-05T07:30:32.820Z,31.00
2022-08-05T07:32:59.959Z,30.95
2022-08-05T07:36:02.607Z,30.98
2022-08-05T07:38:32.175Z,31.02
2022-08-05T07:41:04.474Z,31.07
2022-08-05T07:43:45.618Z,31.11
2022-08-05T07:46:20.800Z,31.11
2022-08-05T07:49:04.048Z,31.14
2022-08-05T07:51:36.398Z,31.20
2022-08-05T07:54:04.423Z,31.23
2022-08-05T07:56:59.841Z,31.26
2022-08-05T07:59:17.887Z,31.51
2022-08-05T08:01:52.448Z,31.45
2022-08-05T08:04:37.716Z,31.28
2022-08-05T08:07:05.412Z,31.30
2022-08-05T08:09:33.871Z,31.31
2022-08-05T08:12:09.079Z,31.36
2022-08-05T08:14:40.961Z,31.39
2022-08-05T08:17:07.357Z,31.39
2022-08-05T08:20:21.205Z,31.44
2022-08-05T08:22:21.375Z,31.47
2022-08-05T08:24:53.411Z,31.50
2022-08-05T08:27:19.984Z,31.53
2022-08-05T08:30:04.550Z,31.56
2022-08-05T08:32:32.833Z,31.82
2022-08-05T08:34:59.342Z,31.79
2022-08-05T08:37:27.894Z,31.59
2022-08-05T08:39:54.669Z,31.59
2022-08-05T08:42:34.096Z,31.60
2022-08-05T08:45:18.857Z,31.64
2022-08-05T08:48:07.080Z,31.70
2022-08-05T08:51:03.978Z,31.70
2022-08-05T08:53:23.916Z,31.70
2022-08-05T08:56:04.605Z,31.73
2022-08-05T08:58:43.700Z,31.75
2022-08-05T09:01:15.776Z,31.78
2022-08-05T09:03:46.510Z,31.79
2022-08-05T09:06:18.492Z,31.97
2022-08-05T09:08:46.786Z,32.12
2022-08-05T09:11:13.926Z,31.82
2022-08-05T09:14:00.970Z,31.79
2022-08-05T09:16:27.038Z,31.82
2022-08-05T09:18:53.511Z,31.84
2022-08-05T09:22:21.974Z,31.87
2022-08-05T09:24:08.508Z,31.90
2022-08-05T09:26:36.796Z,31.88
2022-08-05T09:29:03.231Z,31.90
2022-08-05T09:32:42.351Z,31.92
2022-08-05T09:34:16.147Z,31.93
2022-08-05T09:36:53.990Z,31.96
2022-08-05T09:39:22.997Z,32.00
2022-08-05T09:41:56.093Z,32.25
2022-08-05T09:44:22.871Z,32.19
2022-08-05T09:46:51.811Z,31.97
2022-08-05T09:49:40.405Z,31.95
2022-08-05T09:52:10.933Z,31.97
2022-08-05T09:54:37.575Z,31.98
2022-08-05T09:57:06.628Z,32.00
2022-08-05T09:59:50.021Z,32.01
2022-08-05T10:02:18.638Z,32.02
2022-08-05T10:04:46.938Z,32.03
2022-08-05T10:07:19.832Z,32.01
2022-08-05T10:09:47.566Z,32.04
2022-08-05T10:12:34.163Z,32.05
2022-08-05T10:15:02.077Z,32.05
2022-08-05T10:17:37.920Z,32.33
2022-08-05T10:20:10.251Z,32.20
2022-08-05T10:22:38.683Z,32.02
2022-08-05T10:25:09.516Z,32.02
2022-08-05T10:28:13.936Z,32.04
2022-08-05T10:31:20.479Z,32.07
2022-08-05T10:33:14.686Z,32.09
2022-08-05T10:35:44.253Z,32.08
2022-08-05T10:38:11.943Z,32.08
2022-08-05T10:40:43.474Z,32.11
2022-08-05T10:43:12.496Z,32.11
2022-08-05T10:45:40.227Z,32.12
2022-08-05T10:48:31.670Z,32.14
2022-08-05T10:50:55.089Z,32.16
2022-08-05T10:53:23.371Z,32.42
2022-08-05T10:56:05.099Z,32.35
2022-08-05T10:58:48.534Z,32.13
2022-08-05T11:01:28.032Z,32.12
2022-08-05T11:03:55.008Z,32.12
2022-08-05T11:06:21.670Z,32.15
2022-08-05T11:08:57.635Z,32.18
2022-08-05T11:11:24.177Z,32.18
2022-08-05T11:13:59.739Z,32.16
2022-08-05T11:16:47.482Z,32.18
2022-08-05T11:20:16.669Z,32.17
2022-08-05T11:21:59.125Z,32.20
2022-08-05T11:24:30.798Z,32.20
2022-08-05T11:26:57.511Z,32.21
2022-08-05T11:29:25.108Z,32.46
2022-08-05T11:31:57.500Z,32.40
2022-08-05T11:34:26.242Z,32.19
2022-08-05T11:36:54.897Z,32.20
2022-08-05T11:39:23.213Z,32.18
2022-08-05T11:42:01.417Z,32.20
2022-08-05T11:44:40.954Z,32.23
2022-08-05T11:47:21.992Z,32.24
2022-08-05T11:49:50.982Z,32.24
2022-08-05T11:52:17.698Z,32.27
2022-08-05T11:54:54.847Z,32.29
2022-08-05T11:57:25.546Z,32.28
2022-08-05T12:00:06.104Z,32.33
2022-08-05T12:02:36.053Z,32.35
2022-08-05T12:05:07.146Z,32.55
2022-08-05T12:08:08.420Z,32.58
2022-08-05T12:10:42.884Z,32.34
2022-08-05T12:13:16.565Z,32.34
2022-08-05T12:15:45.433Z,32.34
2022-08-05T12:18:16.939Z,32.34
2022-08-05T12:20:43.515Z,32.38
2022-08-05T12:23:12.146Z,32.37
2022-08-05T12:25:38.617Z,32.35
2022-08-05T12:28:05.566Z,32.40
2022-08-05T12:30:36.042Z,32.42
2022-08-05T12:33:07.536Z,32.46
2022-08-05T12:35:49.507Z,32.45
2022-08-05T12:38:22.370Z,32.46
2022-08-05T12:40:56.847Z,32.47
2022-08-05T12:43:23.462Z,32.77
2022-08-05T12:45:50.218Z,32.54
2022-08-05T12:48:27.799Z,32.45
2022-08-05T12:50:59.590Z,32.45
2022-08-05T12:53:36.740Z,32.47
2022-08-05T12:56:04.648Z,32.51
2022-08-05T12:58:54.762Z,32.52
2022-08-05T13:02:02.595Z,32.51
2022-08-05T13:04:15.693Z,32.55
2022-08-05T13:06:51.509Z,32.55
2022-08-05T13:09:28.105Z,32.55
2022-08-05T13:12:02.573Z,32.56
2022-08-05T13:14:36.219Z,32.60
2022-08-05T13:17:03.187Z,32.61
2022-08-05T13:19:52.073Z,32.84
2022-08-05T13:22:29.366Z,32.82
2022-08-05T13:24:57.927Z,32.61
2022-08-05T13:27:37.267Z,32.61
2022-08-05T13:30:34.286Z,32.61
2022-08-05T13:32:51.289Z,32.61
2022-08-05T13:35:22.077Z,32.63
2022-08-05T13:37:55.572Z,32.67
2022-08-05T13:40:36.665Z,32.64
2022-08-05T13:43:12.179Z,32.66
2022-08-05T13:45:38.799Z,32.68
2022-08-05T13:48:57.716Z,32.73
2022-08-05T13:50:56.273Z,32.74
2022-08-05T13:53:23.076Z,32.73
2022-08-05T13:55:58.881Z,32.73
2022-08-05T13:58:30.507Z,33.02
2022-08-05T14:00:57.449Z,32.85
2022-08-05T14:03:24.134Z,32.73
2022-08-05T14:06:25.382Z,32.71
2022-08-05T14:08:37.044Z,32.70
2022-08-05T14:11:20.646Z,32.68
2022-08-05T14:13:54.943Z,32.70
2022-08-05T14:16:23.388Z,32.71
2022-08-05T14:18:49.935Z,32.71
2022-08-05T14:22:08.176Z,32.73
2022-08-05T14:24:02.776Z,32.74
2022-08-05T14:26:38.368Z,32.76
2022-08-05T14:29:05.356Z,32.73
2022-08-05T14:32:02.538Z,32.75
2022-08-05T14:34:29.230Z,32.77
2022-08-05T14:37:01.542Z,33.01
2022-08-05T14:39:27.957Z,32.91
2022-08-05T14:42:19.548Z,32.73
2022-08-05T14:44:42.020Z,32.73
2022-08-05T14:47:08.874Z,32.73
2022-08-05T14:49:56.354Z,32.74
2022-08-05T14:52:42.831Z,32.75
2022-08-05T14:55:08.211Z,32.76
2022-08-05T14:57:54.525Z,32.75
2022-08-05T15:00:27.858Z,32.74
2022-08-05T15:02:55.010Z,32.76
2022-08-05T15:05:21.461Z,32.77
2022-08-05T15:08:10.730Z,32.79
2022-08-05T15:10:34.519Z,32.76
2022-08-05T15:13:03.562Z,32.79
2022-08-05T15:15:54.616Z,32.95
2022-08-05T15:18:17.463Z,33.05
2022-08-05T15:20:43.923Z,32.78
2022-08-05T15:23:15.595Z,32.77
2022-08-05T15:25:52.216Z,32.76
2022-08-05T15:28:20.316Z,32.79
2022-08-05T15:30:52.969Z,32.78
2022-08-05T15:33:56.790Z,32.77
2022-08-05T15:36:06.281Z,32.78
2022-08-05T15:38:43.714Z,32.76
2022-08-05T15:41:22.375Z,32.77
2022-08-05T15:43:50.592Z,32.78
2022-08-05T15:46:18.172Z,32.80
2022-08-05T15:48:52.687Z,32.78
2022-08-05T15:51:24.543Z,32.80
2022-08-05T15:54:10.952Z,32.80
2022-08-05T15:56:41.750Z,33.09
2022-08-05T15:59:08.155Z,32.90
2022-08-05T16:01:39.744Z,32.74
2022-08-05T16:04:18.653Z,32.74
2022-08-05T16:06:45.047Z,32.74
2022-08-05T16:09:11.490Z,32.75
2022-08-05T16:11:43.136Z,32.77
2022-08-05T16:14:10.079Z,32.76
2022-08-05T16:16:43.955Z,32.76
2022-08-05T16:19:12.341Z,32.76
2022-08-05T16:21:58.759Z,32.77
2022-08-05T16:24:40.687Z,32.78
2022-08-05T16:27:08.640Z,32.77
2022-08-05T16:29:37.268Z,32.86
2022-08-05T16:32:04.316Z,32.88
2022-08-05T16:34:31.139Z,32.92
2022-08-05T16:36:57.525Z,33.35
2022-08-05T16:40:06.475Z,33.01
2022-08-05T16:42:15.015Z,32.92
2022-08-05T16:44:44.290Z,32.89
2022-08-05T16:47:28.619Z,32.94
2022-08-05T16:50:02.856Z,32.95
2022-08-05T16:52:32.636Z,32.95
2022-08-05T16:55:00.126Z,32.96
2022-08-05T16:57:42.952Z,32.95
2022-08-05T17:00:14.065Z,32.94
2022-08-05T17:02:40.612Z,32.95
2022-08-05T17:05:07.008Z,32.95
2022-08-05T17:07:38.981Z,32.95
2022-08-05T17:10:05.917Z,32.95
2022-08-05T17:12:51.384Z,32.97
2022-08-05T17:15:19.292Z,32.98
2022-08-05T17:17:49.994Z,33.42
2022-08-05T17:20:21.702Z,33.03
2022-08-05T17:22:55.209Z,32.95
2022-08-05T17:25:39.722Z,32.94
2022-08-05T17:28:06.898Z,32.95
2022-08-05T17:30:42.738Z,32.93
2022-08-05T17:33:18.192Z,32.93
2022-08-05T17:36:07.855Z,32.93
2022-08-05T17:38:32.752Z,32.92
2022-08-05T17:40:59.481Z,32.92
2022-08-05T17:43:46.807Z,32.92
2022-08-05T17:46:12.411Z,32.90
2022-08-05T17:48:39.999Z,32.92
2022-08-05T17:51:09.670Z,32.89
2022-08-05T17:53:36.159Z,32.89
2022-08-05T17:56:03.393Z,33.13
2022-08-05T17:58:32.318Z,33.44
2022-08-05T18:00:59.329Z,32.96
2022-08-05T18:06:15.002Z,32.95
2022-08-05T18:08:44.778Z,32.97
2022-08-05T18:11:11.544Z,32.95
2022-08-05T18:13:51.406Z,32.98
2022-08-05T18:16:18.076Z,32.97
2022-08-05T18:18:48.600Z,32.97
2022-08-05T18:21:19.862Z,32.99
2022-08-05T18:23:49.253Z,33.02
2022-08-05T18:26:20.419Z,33.03
2022-08-05T18:28:46.831Z,33.04
2022-08-05T18:31:15.836Z,33.06
2022-08-05T18:33:46.987Z,33.08
2022-08-05T18:36:15.424Z,33.08
2022-08-05T18:38:42.198Z,33.59
2022-08-05T18:41:57.518Z,33.24
2022-08-05T18:43:55.041Z,33.06
2022-08-05T18:46:22.659Z,33.06
2022-08-05T18:48:52.785Z,33.07
2022-08-05T18:52:04.358Z,33.05
2022-08-05T18:54:07.338Z,33.06
2022-08-05T18:56:35.273Z,33.07
2022-08-05T18:59:01.646Z,33.05
2022-08-05T19:01:33.142Z,33.05
2022-08-05T19:04:13.732Z,33.04
2022-08-05T19:06:50.616Z,33.07
2022-08-05T19:09:17.011Z,33.07
2022-08-05T19:11:59.966Z,33.10
2022-08-05T19:14:44.425Z,33.07
2022-08-05T19:17:14.229Z,33.09
2022-08-05T19:19:44.145Z,33.61
2022-08-05T19:22:13.532Z,33.21
2022-08-05T19:24:56.026Z,33.07
2022-08-05T19:27:23.182Z,33.08
2022-08-05T19:29:49.780Z,33.06
2022-08-05T19:32:16.151Z,33.07
2022-08-05T19:34:54.544Z,33.07
2022-08-05T19:37:22.164Z,33.12
2022-08-05T19:39:56.553Z,33.11
2022-08-05T19:42:35.711Z,33.10
2022-08-05T19:45:02.851Z,33.11
2022-08-05T19:47:32.831Z,33.10
2022-08-05T19:50:00.408Z,33.11
2022-08-05T19:52:31.618Z,33.12
2022-08-05T19:55:00.439Z,33.12
2022-08-05T19:57:49.239Z,33.11
2022-08-05T20:00:20.745Z,33.60
2022-08-05T20:02:47.302Z,33.33
2022-08-05T20:05:16.390Z,33.13
2022-08-05T20:07:53.902Z,33.11
2022-08-05T20:10:24.451Z,33.10
2022-08-05T20:12:51.480Z,33.10
2022-08-05T20:15:48.011Z,33.11
2022-08-05T20:18:04.369Z,33.13
2022-08-05T20:20:37.412Z,33.12
2022-08-05T20:23:05.052Z,33.11
2022-08-05T20:25:33.775Z,33.12
2022-08-05T20:28:06.245Z,33.12
2022-08-05T20:30:33.615Z,33.11
2022-08-05T20:33:03.039Z,33.12
2022-08-05T20:35:29.561Z,33.15
2022-08-05T20:38:05.962Z,33.13
2022-08-05T20:40:34.598Z,33.38
2022-08-05T20:43:00.993Z,33.77
2022-08-05T20:45:55.931Z,33.21
2022-08-05T20:48:16.442Z,33.15
2022-08-05T20:50:45.572Z,33.15
2022-08-05T20:53:16.318Z,33.13
2022-08-05T20:56:09.057Z,33.16
2022-08-05T20:58:35.856Z,33.16
2022-08-05T21:01:03.546Z,33.12
2022-08-05T21:03:30.497Z,33.14
2022-08-05T21:06:01.148Z,33.14
2022-08-05T21:08:35.984Z,33.13
2022-08-05T21:11:10.011Z,33.14
2022-08-05T21:13:48.498Z,33.13
2022-08-05T21:16:23.083Z,33.14
2022-08-05T21:18:56.678Z,33.15
2022-08-05T21:21:26.579Z,33.17
2022-08-05T21:24:06.359Z,33.66
2022-08-05T21:26:32.762Z,33.29
2022-08-05T21:29:03.826Z,33.15
2022-08-05T21:31:41.241Z,33.13
2022-08-05T21:34:08.204Z,33.16
2022-08-05T21:36:36.910Z,33.16
2022-08-05T21:39:03.374Z,33.14
2022-08-05T21:41:33.086Z,33.14
2022-08-05T21:44:01.520Z,33.14
2022-08-05T21:46:30.361Z,33.11
2022-08-05T21:48:56.966Z,33.13
2022-08-05T21:52:22.433Z,33.12
2022-08-05T21:54:12.858Z,33.13
2022-08-05T21:56:44.590Z,33.14
2022-08-05T21:59:22.450Z,33.16
2022-08-05T22:01:51.391Z,33.15
2022-08-05T22:04:21.010Z,33.55
2022-08-05T22:06:52.051Z,33.50
2022-08-05T22:09:21.122Z,33.17
2022-08-05T22:11:48.205Z,33.15
2022-08-05T22:14:33.461Z,33.11
2022-08-05T22:17:04.881Z,33.14
2022-08-05T22:20:00.131Z,33.12
2022-08-05T22:22:27.128Z,33.10
2022-08-05T22:24:55.927Z,33.10
2022-08-05T22:27:22.523Z,33.10
2022-08-05T22:29:48.917Z,33.09
2022-08-05T22:32:20.761Z,33.11
2022-08-05T22:34:49.443Z,33.12
2022-08-05T22:37:15.838Z,33.09
2022-08-05T22:39:42.318Z,33.11
2022-08-05T22:42:15.258Z,33.11
2022-08-05T22:44:56.436Z,33.13
2022-08-05T22:47:29.771Z,33.66
2022-08-05T22:50:19.119Z,33.26
2022-08-05T22:52:43.428Z,33.11
2022-08-05T22:55:18.417Z,33.13
2022-08-05T22:57:46.386Z,33.10
2022-08-05T23:00:12.853Z,33.10
2022-08-05T23:02:46.969Z,33.09
2022-08-05T23:05:13.936Z,33.10
2022-08-05T23:07:45.172Z,33.09
2022-08-05T23:10:15.164Z,33.10
2022-08-05T23:12:43.095Z,33.11
2022-08-05T23:15:10.338Z,33.09
2022-08-05T23:18:00.997Z,33.08
2022-08-05T23:20:25.193Z,33.11
2022-08-05T23:22:54.197Z,33.10
2022-08-05T23:25:53.094Z,33.11
2022-08-05T23:28:09.214Z,33.59
2022-08-05T23:30:39.564Z,33.38
2022-08-05T23:33:07.111Z,33.10
2022-08-05T23:35:42.970Z,33.10
2022-08-05T23:38:12.122Z,33.09
2022-08-05T23:40:38.648Z,33.10
2022-08-05T23:43:24.400Z,33.08
2022-08-05T23:45:52.275Z,33.07
2022-08-05T23:48:19.747Z,33.07
2022-08-05T23:50:46.169Z,33.07
2022-08-05T23:53:23.047Z,33.08
2022-08-05T23:55:49.799Z,33.07
2022-08-05T23:58:31.679Z,33.07
